Time;durP1;ratioP1;P1;durP2;ratioP2;P2;SDS_P1;SDS_P2;PMS_P1;PMS_P2;Temp;Humidity;BMP_temperature;BMP_pressure;BME280_temperature;BME280_humidity;BME280_pressure;Samples;Min_cycle;Max_cycle;Signal;HPM_P1;HPM_P2
2022/12/08 00:01:08;;;;;;;21.95;10.10;;;;;;;-1.60;96.42;93390.50;5002026;28;20053;-72
2022/12/08 00:03:35;;;;;;;25.83;11.80;;;;;;;-1.79;97.08;93393.13;5009872;28;20042;-72
2022/12/08 00:11:36;;;;;;;20.98;10.18;;;;;;;-1.70;97.67;93399.88;5009065;28;20117;-71
2022/12/08 00:14:02;;;;;;;20.80;9.80;;;;;;;-1.58;97.46;93390.16;5009171;28;20050;-70
2022/12/08 00:16:29;;;;;;;21.40;10.45;;;;;;;-1.52;97.45;93386.84;5010011;28;20048;-71
2022/12/08 00:18:56;;;;;;;22.17;9.75;;;;;;;-1.48;97.15;93382.31;5009374;28;20046;-72
2022/12/08 00:21:22;;;;;;;29.27;11.68;;;;;;;-1.53;97.17;93381.78;5009524;28;20052;-71
2022/12/08 00:23:49;;;;;;;25.73;11.27;;;;;;;-1.47;96.60;93380.38;5003240;28;20403;-70
2022/12/08 00:26:15;;;;;;;26.00;11.65;;;;;;;-1.51;97.59;93377.63;4990175;28;20042;-71
2022/12/08 00:28:42;;;;;;;21.92;10.15;;;;;;;-1.48;97.23;93376.16;4994324;28;20504;-71
2022/12/08 00:31:10;;;;;;;24.48;11.38;;;;;;;-1.55;97.34;93367.91;5004435;28;20517;-72
2022/12/08 00:33:38;;;;;;;28.17;12.10;;;;;;;-1.50;97.38;93371.13;4997976;28;20046;-72
2022/12/08 00:36:10;;;;;;;23.63;10.05;;;;;;;-1.45;97.16;93364.66;5004341;28;20564;-71
2022/12/08 00:38:37;;;;;;;18.10;8.75;;;;;;;-1.42;97.25;93370.13;5010903;28;20048;-71
2022/12/08 00:41:16;;;;;;;18.65;9.10;;;;;;;-1.47;97.02;93359.66;5013111;28;20103;-70
2022/12/08 00:43:43;;;;;;;21.70;9.52;;;;;;;-1.44;96.87;93363.53;4989813;28;20072;-72
2022/12/08 00:46:10;;;;;;;20.63;9.60;;;;;;;-1.39;97.07;93354.41;5012730;28;20116;-72
2022/12/08 00:48:37;;;;;;;22.52;11.27;;;;;;;-1.95;98.31;93356.31;5013399;28;20057;-73
2022/12/08 00:51:04;;;;;;;25.00;11.05;;;;;;;-1.95;99.94;93353.63;5010186;28;20061;-70
2022/12/08 00:53:31;;;;;;;20.48;10.00;;;;;;;-1.63;98.77;93357.00;5011503;28;20039;-71
2022/12/08 00:55:58;;;;;;;22.65;10.15;;;;;;;-1.56;98.28;93352.91;5000441;28;20045;-72
2022/12/08 00:58:24;;;;;;;27.13;11.60;;;;;;;-1.69;98.34;93344.97;5010500;28;20472;-72
2022/12/08 01:00:51;;;;;;;26.00;11.43;;;;;;;-1.61;98.62;93344.00;5001910;28;20084;-71
2022/12/08 01:03:18;;;;;;;30.17;12.18;;;;;;;-1.79;98.51;93342.03;5011266;28;20454;-72
2022/12/08 01:05:45;;;;;;;25.95;11.20;;;;;;;-1.90;99.14;93342.59;5006589;28;20048;-71
2022/12/08 01:08:11;;;;;;;22.45;10.80;;;;;;;-1.90;99.64;93342.59;5005170;28;20058;-71
2022/12/08 01:10:38;;;;;;;23.80;11.35;;;;;;;-1.88;99.54;93336.88;5012619;28;20068;-71
2022/12/08 01:13:05;;;;;;;24.67;10.20;;;;;;;-1.87;99.35;93333.03;5027588;28;20054;-74
2022/12/08 01:15:32;;;;;;;23.50;10.45;;;;;;;-1.96;99.06;93337.84;5011879;28;20103;-72
2022/12/08 01:17:58;;;;;;;21.92;9.90;;;;;;;-2.07;98.91;93338.38;4999899;28;20049;-72
2022/12/08 01:20:25;;;;;;;24.80;10.57;;;;;;;-2.07;99.76;93338.38;5012425;28;20050;-71
2022/12/08 01:22:52;;;;;;;23.02;10.52;;;;;;;-2.16;99.83;93339.69;5017179;28;20044;-71
2022/12/08 01:25:18;;;;;;;23.85;10.25;;;;;;;-2.17;99.96;93338.91;5022490;28;20130;-72
2022/12/08 01:27:45;;;;;;;21.90;9.90;;;;;;;-2.13;99.86;93330.91;5036710;28;20562;-73
2022/12/08 01:30:12;;;;;;;21.55;9.10;;;;;;;-2.25;100.00;93331.81;5013124;28;20045;-73
2022/12/08 01:32:39;;;;;;;17.98;9.00;;;;;;;-2.30;100.00;93332.06;5009621;28;20050;-73
2022/12/08 01:35:05;;;;;;;19.40;8.50;;;;;;;-2.33;99.73;93325.50;5001725;28;20114;-72
2022/12/08 01:37:32;;;;;;;18.05;8.90;;;;;;;-2.38;99.84;93324.97;5012331;28;20062;-72
2022/12/08 01:39:59;;;;;;;23.40;10.10;;;;;;;-2.51;99.95;93330.44;5012283;28;20045;-71
2022/12/08 01:42:25;;;;;;;25.52;11.18;;;;;;;-2.53;100.00;93321.19;5010854;28;20042;-73
2022/12/08 01:44:56;;;;;;;21.80;8.77;;;;;;;-2.57;100.00;93323.00;5011065;28;20046;-72
2022/12/08 01:47:26;;;;;;;19.25;8.25;;;;;;;-2.66;100.00;93315.88;5011212;28;20231;-73
2022/12/08 01:49:53;;;;;;;19.35;7.72;;;;;;;-2.70;100.00;93325.75;5012172;28;20050;-72
2022/12/08 01:52:36;;;;;;;13.00;5.88;;;;;;;-2.77;99.96;93322.91;5011051;28;20946;-72
2022/12/08 01:55:10;;;;;;;17.63;6.00;;;;;;;-2.83;99.97;93324.28;4996354;28;20068;-71
2022/12/08 01:57:43;;;;;;;13.70;5.35;;;;;;;-2.79;99.69;93327.84;4987844;28;20384;-71
2022/12/08 02:00:13;;;;;;;12.00;5.40;;;;;;;-2.81;99.33;93322.03;4993265;28;20424;-71
2022/12/08 02:03:00;;;;;;;11.68;4.88;;;;;;;-2.88;98.76;93325.31;5000271;28;20050;-73
2022/12/08 02:05:33;;;;;;;9.00;4.03;;;;;;;-2.86;99.21;93319.59;5002309;28;20663;-72
2022/12/08 02:08:04;;;;;;;9.10;4.15;;;;;;;-2.80;98.88;93323.56;5011414;28;20049;-72
2022/12/08 02:10:35;;;;;;;8.50;3.55;;;;;;;-2.75;98.75;93311.81;5002747;28;20469;-72
2022/12/08 02:13:04;;;;;;;7.97;3.45;;;;;;;-2.77;98.38;93317.53;4995061;28;20033;-72
2022/12/08 02:15:36;;;;;;;7.88;3.22;;;;;;;-2.75;98.37;93319.88;5011362;28;20049;-73
2022/12/08 02:18:13;;;;;;;9.43;3.85;;;;;;;-2.72;97.66;93313.78;5011150;28;20052;-73
2022/12/08 02:20:43;;;;;;;10.15;4.10;;;;;;;-2.73;97.18;93317.63;5011911;28;20060;-72
2022/12/08 02:23:30;;;;;;;8.88;3.38;;;;;;;-2.73;96.76;93317.63;4997543;28;20042;-73
2022/12/08 02:26:24;;;;;;;12.23;4.70;;;;;;;-2.76;96.48;93302.97;5003317;28;20046;-73
2022/12/08 02:28:57;;;;;;;16.98;5.05;;;;;;;-2.76;95.94;93302.19;5004342;28;20050;-72
2022/12/08 02:31:53;;;;;;;15.20;5.03;;;;;;;-2.73;96.26;93302.28;5004680;28;20045;-72
2022/12/08 02:34:57;;;;;;;7.05;2.70;;;;;;;-2.83;96.09;93300.13;5005564;28;20384;-72
2022/12/08 02:37:30;;;;;;;7.90;3.00;;;;;;;-2.79;96.45;93292.94;5006828;28;21708;-71
2022/12/08 02:40:23;;;;;;;5.78;2.65;;;;;;;-2.79;96.16;93298.31;5009743;28;20046;-73
2022/12/08 02:43:06;;;;;;;7.28;2.97;;;;;;;-2.83;96.68;93295.53;5010197;28;20104;-72
2022/12/08 02:45:40;;;;;;;12.80;4.00;;;;;;;-2.82;96.46;93283.66;5008798;28;20336;-73
2022/12/08 02:48:08;;;;;;;12.75;4.00;;;;;;;-2.83;96.31;93294.75;5010642;28;20129;-72
2022/12/08 02:50:34;;;;;;;10.95;3.60;;;;;;;-2.93;96.87;93290.66;4999053;28;20053;-73
2022/12/08 02:53:02;;;;;;;13.30;5.00;;;;;;;-2.87;97.02;93291.19;5009151;28;20115;-73
2022/12/08 02:56:16;;;;;;;10.60;4.28;;;;;;;-2.93;97.18;93287.97;4992481;28;20050;-72
2022/12/08 02:58:54;;;;;;;9.73;3.72;;;;;;;-2.98;97.54;93276.72;4985270;28;20491;-73
2022/12/08 03:01:23;;;;;;;10.82;4.30;;;;;;;-2.99;97.70;93267.13;4989540;28;20780;-73
2022/12/08 03:04:25;;;;;;;9.70;3.78;;;;;;;-3.03;97.11;93267.78;4997643;28;20046;-72
2022/12/08 03:07:03;;;;;;;9.10;4.40;;;;;;;-3.12;97.72;93267.19;4949462;28;21645;-73
2022/12/08 03:09:41;;;;;;;9.73;4.15;;;;;;;-3.14;97.46;93266.75;5018190;28;21785;-72
2022/12/08 03:12:24;;;;;;;9.88;4.30;;;;;;;-3.17;97.60;93267.44;4999590;28;20054;-72
2022/12/08 03:14:54;;;;;;;7.47;3.45;;;;;;;-3.16;97.75;93262.84;5010491;28;20052;-72
2022/12/08 03:17:24;;;;;;;8.32;3.83;;;;;;;-3.18;97.73;93255.13;5009367;28;20434;-71
2022/12/08 03:19:53;;;;;;;10.10;4.10;;;;;;;-3.23;97.77;93258.09;5010599;28;20042;-72
2022/12/08 03:22:22;;;;;;;8.23;3.85;;;;;;;-3.27;98.07;93255.31;5009472;28;20839;-72
2022/12/08 03:24:50;;;;;;;10.63;4.15;;;;;;;-3.28;98.06;93253.75;5004667;28;20043;-73
2022/12/08 03:27:21;;;;;;;10.65;4.80;;;;;;;-3.35;98.16;93258.94;4997048;28;20088;-72
2022/12/08 03:29:50;;;;;;;13.13;5.35;;;;;;;-3.59;100.00;93251.78;4996840;28;20419;-72
2022/12/08 03:32:35;;;;;;;14.50;5.60;;;;;;;-3.36;99.68;93248.53;5009663;28;20060;-72
2022/12/08 03:35:12;;;;;;;14.07;6.10;;;;;;;-3.36;99.57;93246.66;5009786;28;20041;-73
2022/12/08 03:37:39;;;;;;;13.73;6.57;;;;;;;-3.29;99.97;93243.38;5010182;28;20044;-72
2022/12/08 03:40:10;;;;;;;17.48;7.60;;;;;;;-3.31;100.00;93245.63;5009840;28;20050;-72
2022/12/08 03:42:37;;;;;;;16.95;8.00;;;;;;;-3.29;100.00;93240.69;5004660;28;20050;-72
2022/12/08 03:45:04;;;;;;;15.60;7.50;;;;;;;-3.31;100.00;93232.97;5001750;28;20050;-72
2022/12/08 03:47:31;;;;;;;17.40;7.63;;;;;;;-3.33;100.00;93227.16;5007498;28;20050;-72
2022/12/08 03:49:58;;;;;;;16.20;7.10;;;;;;;-3.24;100.00;93227.78;5005260;28;20054;-72
2022/12/08 03:52:24;;;;;;;17.40;7.93;;;;;;;-3.33;100.00;93234.44;5004569;28;20046;-72
2022/12/08 03:54:51;;;;;;;16.98;7.65;;;;;;;-3.19;100.00;93226.75;4996828;28;20050;-72
2022/12/08 03:57:18;;;;;;;18.60;8.52;;;;;;;-3.45;100.00;93219.19;4989555;28;20053;-72
2022/12/08 03:59:44;;;;;;;18.83;8.27;;;;;;;-3.32;100.00;93220.69;4993812;28;20058;-72
2022/12/08 04:02:11;;;;;;;18.40;8.38;;;;;;;-3.17;100.00;93221.03;4993138;28;20049;-72
2022/12/08 04:04:38;;;;;;;18.73;8.63;;;;;;;-3.10;100.00;93222.00;4996066;28;20066;-71
2022/12/08 04:07:04;;;;;;;19.10;8.48;;;;;;;-3.15;100.00;93213.44;5009523;28;20042;-71
2022/12/08 04:09:31;;;;;;;16.08;7.70;;;;;;;-3.19;100.00;93220.63;5009861;28;20045;-72
2022/12/08 04:11:58;;;;;;;15.50;7.18;;;;;;;-3.08;100.00;93218.94;5003778;28;20511;-72
2022/12/08 04:14:24;;;;;;;19.33;8.27;;;;;;;-3.12;100.00;93205.47;5004123;28;20053;-72
2022/12/08 04:16:51;;;;;;;21.75;8.90;;;;;;;-3.08;100.00;93216.28;5013963;28;20038;-71
2022/12/08 04:19:18;;;;;;;21.60;9.32;;;;;;;-3.20;100.00;93209.06;5013331;28;20042;-71
2022/12/08 04:21:45;;;;;;;17.33;8.38;;;;;;;-3.08;100.00;93198.28;5012719;28;20050;-72
2022/12/08 04:24:11;;;;;;;17.98;8.07;;;;;;;-2.98;100.00;93206.91;4983981;28;20034;-72
2022/12/08 04:26:38;;;;;;;17.85;8.30;;;;;;;-2.97;100.00;93203.91;5004169;28;20099;-72
2022/12/08 04:29:05;;;;;;;21.00;8.75;;;;;;;-3.04;100.00;93207.19;5007249;28;20210;-71
2022/12/08 04:31:31;;;;;;;20.17;8.38;;;;;;;-2.99;100.00;93208.84;5005511;28;20487;-71
2022/12/08 04:33:58;;;;;;;21.88;10.20;;;;;;;-3.12;100.00;93205.47;5013134;28;20544;-73
2022/12/08 04:36:25;;;;;;;22.27;9.63;;;;;;;-3.20;100.00;93201.03;5013403;28;20054;-72
2022/12/08 04:38:52;;;;;;;19.70;8.43;;;;;;;-3.11;100.00;93198.97;4999450;28;20047;-72
2022/12/08 04:41:18;;;;;;;18.08;7.38;;;;;;;-3.02;100.00;93196.09;5012868;28;20104;-70
2022/12/08 04:43:45;;;;;;;17.52;7.90;;;;;;;-3.16;100.00;93199.22;5013656;28;20056;-72
2022/12/08 04:46:12;;;;;;;17.95;7.65;;;;;;;-3.30;100.00;93196.97;5012866;28;20049;-73
2022/12/08 04:48:39;;;;;;;19.95;8.50;;;;;;;-3.27;100.00;93190.91;5013197;28;20046;-73
2022/12/08 04:51:13;;;;;;;18.35;8.48;;;;;;;-3.18;100.00;93195.31;5012759;28;20104;-72
2022/12/08 04:53:40;;;;;;;19.65;8.38;;;;;;;-3.18;100.00;93198.78;5013189;28;20056;-72
2022/12/08 04:56:14;;;;;;;18.67;7.80;;;;;;;-3.25;100.00;93193.25;5003571;28;20042;-72
2022/12/08 04:58:41;;;;;;;18.65;7.70;;;;;;;-3.27;100.00;93190.91;5012142;28;20050;-72
2022/12/08 05:01:08;;;;;;;17.42;7.82;;;;;;;-3.23;100.00;93186.41;5012532;28;20057;-71
2022/12/08 05:03:35;;;;;;;18.30;8.38;;;;;;;-3.21;100.00;93191.44;5002439;28;20181;-72
2022/12/08 05:06:03;;;;;;;19.98;9.55;;;;;;;-3.28;100.00;93191.25;5021612;28;20111;-71
2022/12/08 05:08:30;;;;;;;19.80;8.70;;;;;;;-3.17;100.00;93189.63;5012800;28;20046;-71
2022/12/08 05:11:05;;;;;;;17.88;8.55;;;;;;;-3.15;100.00;93183.91;5012333;28;20058;-72
2022/12/08 05:13:32;;;;;;;16.80;7.47;;;;;;;-3.23;100.00;93183.72;5005409;28;20042;-72
2022/12/08 05:16:03;;;;;;;17.33;7.70;;;;;;;-3.29;100.00;93185.09;5015765;28;20054;-71
2022/12/08 05:18:30;;;;;;;18.02;7.75;;;;;;;-3.37;100.00;93180.69;5019680;28;20566;-73
2022/12/08 05:20:57;;;;;;;16.30;7.30;;;;;;;-3.47;100.00;93167.78;5020456;28;20149;-73
2022/12/08 05:23:25;;;;;;;17.55;7.72;;;;;;;-3.52;100.00;93176.09;5014377;28;20394;-71
2022/12/08 05:25:51;;;;;;;17.15;8.18;;;;;;;-3.56;100.00;93172.53;5000676;28;20064;-72
2022/12/08 05:28:18;;;;;;;16.92;7.82;;;;;;;-3.57;100.00;93179.81;5011294;28;20049;-72
2022/12/08 05:31:04;;;;;;;17.13;8.10;;;;;;;-3.93;100.00;93172.75;5009459;28;20049;-71
2022/12/08 05:33:31;;;;;;;16.05;7.82;;;;;;;-3.87;100.00;93169.47;4992796;28;20057;-71
2022/12/08 05:35:58;;;;;;;17.95;8.00;;;;;;;-3.89;100.00;93173.63;4996568;28;20418;-73
2022/12/08 05:38:25;;;;;;;14.88;7.10;;;;;;;-3.90;100.00;93169.38;4991450;28;20073;-70
2022/12/08 05:40:51;;;;;;;25.23;9.90;;;;;;;-4.03;100.00;93177.47;5000708;28;20050;-71
2022/12/08 05:43:18;;;;;;;23.45;9.38;;;;;;;-4.10;100.00;93174.59;5006869;28;20172;-72
2022/12/08 05:45:45;;;;;;;30.92;12.10;;;;;;;-4.11;100.00;93167.66;5012049;28;20052;-72
2022/12/08 05:48:11;;;;;;;37.72;15.55;;;;;;;-4.13;100.00;93166.47;5011671;28;20050;-72
2022/12/08 05:50:39;;;;;;;37.53;15.20;;;;;;;-4.19;100.00;93168.59;4998183;28;20103;-71
2022/12/08 05:53:05;;;;;;;35.35;14.73;;;;;;;-4.24;100.00;93158.91;5011676;28;20062;-71
2022/12/08 05:55:32;;;;;;;40.67;16.05;;;;;;;-4.26;99.96;93157.69;5010223;28;20049;-72
2022/12/08 05:57:58;;;;;;;40.45;14.88;;;;;;;-4.36;100.00;93158.19;5011421;28;20060;-72
2022/12/08 06:00:33;;;;;;;30.55;11.75;;;;;;;-4.43;99.72;93156.88;5011221;28;20072;-73
2022/12/08 06:03:00;;;;;;;22.20;9.07;;;;;;;-4.45;99.38;93167.13;5005919;28;20065;-72
2022/12/08 06:05:27;;;;;;;19.02;8.13;;;;;;;-4.54;99.43;93166.47;5003738;28;20046;-72
2022/12/08 06:07:54;;;;;;;100.60;26.33;;;;;;;-4.64;98.92;93175.00;4992102;28;20046;-68
2022/12/08 06:10:20;;;;;;;113.95;28.83;;;;;;;-4.65;99.52;93178.75;5003329;28;20099;-71
2022/12/08 06:12:47;;;;;;;74.72;22.88;;;;;;;-4.64;99.46;93173.09;5009975;28;20104;-72
2022/12/08 06:15:14;;;;;;;62.05;18.65;;;;;;;-4.80;100.00;93182.16;5010966;28;20050;-72
2022/12/08 06:17:40;;;;;;;45.95;14.88;;;;;;;-4.72;99.79;93175.91;5011157;28;20042;-72
2022/12/08 06:20:08;;;;;;;24.38;8.80;;;;;;;-4.74;99.35;93181.59;5009843;28;20426;-71
2022/12/08 06:22:35;;;;;;;13.70;6.50;;;;;;;-4.80;98.48;93180.25;5011273;28;20046;-72
2022/12/08 06:25:02;;;;;;;11.18;4.57;;;;;;;-4.88;97.93;93179.25;5003546;28;20061;-71
2022/12/08 06:27:35;;;;;;;10.48;4.60;;;;;;;-4.89;98.05;93174.22;5002515;28;20362;-71
2022/12/08 06:30:02;;;;;;;17.25;6.93;;;;;;;-4.95;98.60;93173.69;5010269;28;20491;-72
2022/12/08 06:32:29;;;;;;;37.47;11.95;;;;;;;-4.89;99.11;93179.59;5010832;28;20064;-72
2022/12/08 06:34:56;;;;;;;27.27;9.38;;;;;;;-4.93;99.32;93182.16;5010835;28;20406;-73
2022/12/08 06:37:22;;;;;;;20.17;7.80;;;;;;;-4.97;98.96;93183.97;5010253;28;20067;-71
2022/12/08 06:39:49;;;;;;;17.70;7.20;;;;;;;-5.09;99.21;93171.38;5008694;28;20210;-70
2022/12/08 06:45:01;;;;;;;13.00;5.38;;;;;;;-5.02;98.19;93171.56;5010389;28;20058;-70
2022/12/08 06:47:27;;;;;;;11.88;5.00;;;;;;;-5.02;98.08;93184.16;5010731;28;20407;-72
2022/12/08 06:49:54;;;;;;;13.15;5.40;;;;;;;-4.99;98.79;93177.38;5010298;28;20525;-69
2022/12/08 06:52:21;;;;;;;13.50;5.60;;;;;;;-4.94;98.53;93172.56;5010675;28;20050;-70
2022/12/08 06:54:47;;;;;;;17.10;6.55;;;;;;;-5.06;99.11;93176.03;4997765;28;20096;-72
2022/12/08 06:57:14;;;;;;;16.73;7.03;;;;;;;-5.04;99.89;93179.16;4992689;28;20149;-74
2022/12/08 06:59:40;;;;;;;16.27;6.70;;;;;;;-4.94;99.35;93183.28;4996675;28;20057;-74
2022/12/08 07:02:08;;;;;;;16.75;6.68;;;;;;;-4.94;99.06;93188.63;5006030;28;20046;-75
2022/12/08 07:04:35;;;;;;;15.43;5.50;;;;;;;-4.92;99.20;93188.28;5005757;28;20046;-74
2022/12/08 07:07:02;;;;;;;12.57;5.55;;;;;;;-4.94;98.60;93187.84;4989857;28;20376;-74
2022/12/08 07:09:28;;;;;;;11.85;5.53;;;;;;;-4.94;98.27;93183.28;4996357;28;20058;-74
2022/12/08 07:11:55;;;;;;;14.02;5.72;;;;;;;-5.02;98.78;93186.84;4997512;28;20527;-75
2022/12/08 07:14:23;;;;;;;11.88;4.93;;;;;;;-4.94;98.42;93182.50;5003731;28;20092;-75
2022/12/08 07:16:51;;;;;;;13.60;5.32;;;;;;;-4.89;98.37;93187.63;5002963;28;20050;-75
2022/12/08 07:19:18;;;;;;;13.90;5.50;;;;;;;-4.86;97.51;93192.31;5010349;28;20046;-75
2022/12/08 07:21:44;;;;;;;14.88;6.28;;;;;;;-4.86;97.27;93185.03;5010291;28;20134;-76
2022/12/08 07:24:11;;;;;;;20.67;8.10;;;;;;;-4.88;97.20;93192.63;4993795;28;20076;-75
2022/12/08 07:26:38;;;;;;;17.80;7.07;;;;;;;-4.85;96.71;93188.50;4999501;28;20054;-76
2022/12/08 07:29:06;;;;;;;17.38;5.88;;;;;;;-4.82;96.40;93191.28;5010255;28;20713;-75
2022/12/08 07:31:32;;;;;;;13.45;5.10;;;;;;;-5.04;96.52;93187.19;5010320;28;20050;-74
2022/12/08 07:33:59;;;;;;;14.73;6.18;;;;;;;-4.80;97.01;93192.88;5009896;28;20046;-74
2022/12/08 07:36:26;;;;;;;12.95;5.13;;;;;;;-4.78;96.16;93187.94;5008807;28;20530;-75
2022/12/08 07:38:53;;;;;;;14.00;5.30;;;;;;;-4.74;96.52;93194.19;5010005;28;20071;-75
2022/12/08 07:41:23;;;;;;;20.95;8.27;;;;;;;-4.79;96.94;93200.53;4992985;28;20782;-75
2022/12/08 07:43:52;;;;;;;36.85;11.23;;;;;;;-4.58;95.97;93195.06;5010459;28;20045;-74
2022/12/08 07:46:21;;;;;;;50.80;16.33;;;;;;;-4.42;96.09;93187.09;5009852;28;20046;-75
2022/12/08 07:48:48;;;;;;;40.72;13.50;;;;;;;-4.21;95.64;93189.59;5024770;28;20045;-76
2022/12/08 07:51:16;;;;;;;52.50;15.35;;;;;;;-4.04;94.35;93186.63;5010104;28;20054;-75
2022/12/08 07:53:44;;;;;;;43.15;14.60;;;;;;;-3.99;93.51;93198.22;5010067;28;20368;-76
2022/12/08 07:56:19;;;;;;;40.67;13.27;;;;;;;-3.92;93.61;93193.06;5007337;28;20041;-75
2022/12/08 07:58:45;;;;;;;48.38;14.15;;;;;;;-3.77;93.02;93191.53;5009982;28;20061;-76
2022/12/08 08:01:27;;;;;;;39.50;13.48;;;;;;;-3.66;92.70;93185.34;5009202;28;20054;-76
2022/12/08 08:03:56;;;;;;;33.42;12.00;;;;;;;-3.46;93.10;93180.06;5009474;28;20042;-71
2022/12/08 08:06:23;;;;;;;33.22;12.23;;;;;;;-3.26;89.95;93176.38;4992637;28;20060;-75
2022/12/08 08:08:49;;;;;;;30.90;11.65;;;;;;;-3.75;88.57;93183.94;4991273;28;20097;-75
2022/12/08 08:11:16;;;;;;;30.80;12.13;;;;;;;-3.71;90.27;93182.91;4996315;28;20056;-76
2022/12/08 08:13:47;;;;;;;31.15;12.02;;;;;;;-3.35;90.36;93178.44;5007531;28;20076;-74
2022/12/08 08:16:14;;;;;;;27.73;11.38;;;;;;;-3.19;88.67;93178.44;4998478;28;20053;-76
2022/12/08 08:18:42;;;;;;;28.10;12.15;;;;;;;-2.66;87.67;93184.25;5009738;28;20050;-76
2022/12/08 08:21:09;;;;;;;32.50;11.63;;;;;;;-2.36;86.58;93178.38;5009517;28;20037;-76
2022/12/08 08:23:55;;;;;;;27.45;11.60;;;;;;;-1.97;83.96;93177.63;4993906;28;20409;-75
2022/12/08 08:26:22;;;;;;;28.50;10.30;;;;;;;-1.56;83.41;93172.66;4996284;28;20111;-75
2022/12/08 08:28:49;;;;;;;25.00;10.90;;;;;;;-0.13;79.10;93172.13;5009608;28;20384;-76
2022/12/08 08:31:15;;;;;;;24.92;11.93;;;;;;;1.38;73.96;93160.91;5009268;28;20052;-72
2022/12/08 08:33:42;;;;;;;25.73;11.20;;;;;;;3.27;64.00;93169.31;5009544;28;20050;-78
2022/12/08 08:36:09;;;;;;;28.05;11.63;;;;;;;1.62;69.25;93164.16;5008165;28;20115;-77
2022/12/08 08:38:41;;;;;;;22.25;11.10;;;;;;;1.43;69.28;93169.81;5009385;28;20411;-78
2022/12/08 08:41:09;;;;;;;23.40;12.60;;;;;;;0.23;72.80;93171.81;4995582;28;20039;-77
2022/12/08 08:43:36;;;;;;;31.03;15.80;;;;;;;0.23;73.71;93169.88;5009847;28;20057;-77
2022/12/08 08:46:05;;;;;;;30.85;16.20;;;;;;;-0.13;74.83;93177.53;5009338;28;20041;-76
2022/12/08 08:48:32;;;;;;;24.02;13.27;;;;;;;-0.25;76.76;93180.47;5009885;28;20042;-77
2022/12/08 08:51:09;;;;;;;22.98;11.23;;;;;;;-0.49;76.43;93176.28;5008924;28;20068;-76
2022/12/08 08:53:37;;;;;;;28.90;13.00;;;;;;;-1.13;78.85;93176.84;5009627;28;20045;-77
2022/12/08 08:56:14;;;;;;;23.02;12.27;;;;;;;-0.75;78.88;93169.75;5001038;28;20038;-74
2022/12/08 08:58:41;;;;;;;27.90;12.82;;;;;;;-1.70;82.46;93171.25;5004351;28;20293;-74
2022/12/08 09:01:07;;;;;;;35.55;15.88;;;;;;;-1.63;83.87;93171.38;5002331;28;20045;-75
2022/12/08 09:03:34;;;;;;;54.58;23.48;;;;;;;-1.05;81.57;93175.03;5013358;28;20042;-72
2022/12/08 09:06:01;;;;;;;37.65;16.35;;;;;;;-0.99;80.60;93178.22;5012777;28;20038;-75
2022/12/08 09:08:27;;;;;;;38.65;15.40;;;;;;;-1.04;80.70;93173.91;5015909;28;20380;-74
2022/12/08 09:10:54;;;;;;;42.97;19.05;;;;;;;-0.82;81.46;93170.41;5028645;28;20153;-70
2022/12/08 09:13:21;;;;;;;46.58;19.92;;;;;;;-0.89;81.31;93169.53;5027152;28;20113;-72
2022/12/08 09:15:48;;;;;;;31.83;14.30;;;;;;;-0.62;80.51;93160.31;5006199;28;20470;-75
2022/12/08 09:18:15;;;;;;;27.85;13.95;;;;;;;-0.73;80.84;93158.59;5012625;28;20052;-75
2022/12/08 09:20:41;;;;;;;27.07;12.80;;;;;;;-0.50;79.89;93156.63;5012668;28;20056;-75
2022/12/08 09:23:08;;;;;;;25.67;11.48;;;;;;;-0.15;79.73;93150.16;5012511;28;20050;-75
2022/12/08 09:25:35;;;;;;;22.80;11.50;;;;;;;0.19;77.52;93152.88;5001471;28;20047;-72
2022/12/08 09:28:02;;;;;;;23.83;11.63;;;;;;;0.08;78.59;93141.97;5012542;28;20060;-74
2022/12/08 09:30:28;;;;;;;25.77;10.43;;;;;;;0.46;77.24;93141.97;5029109;28;20054;-75
2022/12/08 09:32:55;;;;;;;20.93;9.60;;;;;;;0.40;77.26;93149.63;5012681;28;20076;-75
2022/12/08 09:35:22;;;;;;;11.95;6.05;;;;;;;0.49;76.65;93160.13;5011901;28;20049;-75
2022/12/08 09:37:48;;;;;;;16.85;6.88;;;;;;;0.56;75.77;93154.78;5013649;28;20048;-74
2022/12/08 09:40:19;;;;;;;13.18;6.40;;;;;;;0.75;75.81;93154.59;5013209;28;20045;-75
2022/12/08 09:43:04;;;;;;;15.52;7.38;;;;;;;-0.16;77.64;93151.31;5012246;28;20038;-74
2022/12/08 09:45:34;;;;;;;13.52;6.93;;;;;;;-0.34;80.44;93152.97;5011539;28;21369;-74
2022/12/08 09:48:16;;;;;;;13.55;6.30;;;;;;;-0.18;79.92;93158.19;5013304;28;20046;-74
2022/12/08 09:50:48;;;;;;;13.85;6.20;;;;;;;0.30;78.75;93145.69;5011975;28;20045;-73
2022/12/08 09:53:21;;;;;;;28.75;7.00;;;;;;;0.54;77.13;93146.28;5012044;28;20050;-73
2022/12/08 09:55:55;;;;;;;12.63;6.57;;;;;;;0.18;77.96;93135.13;5006703;28;20053;-74
2022/12/08 09:59:14;;;;;;;17.00;7.80;;;;;;;0.69;76.93;93128.31;5011220;28;20074;-74
2022/12/08 10:01:40;;;;;;;19.80;7.50;;;;;;;1.20;75.02;93125.63;4973745;28;20054;-74
2022/12/08 10:04:25;;;;;;;16.73;7.93;;;;;;;1.34;74.41;93124.19;4995450;28;20054;-75
2022/12/08 10:06:57;;;;;;;27.50;9.57;;;;;;;-0.38;80.92;93128.69;4996299;28;20099;-74
2022/12/08 10:09:36;;;;;;;19.95;7.68;;;;;;;-0.21;81.44;93116.56;4997422;28;20635;-75
2022/12/08 10:12:17;;;;;;;19.45;6.80;;;;;;;-0.57;82.70;93121.50;5011647;28;20050;-75
2022/12/08 10:14:56;;;;;;;14.52;6.13;;;;;;;-0.98;84.81;93120.53;5012014;28;20042;-74
2022/12/08 10:17:26;;;;;;;14.63;6.10;;;;;;;-0.05;82.40;93111.75;4998913;28;20525;-74
2022/12/08 10:20:05;;;;;;;14.98;6.00;;;;;;;0.33;80.39;93106.38;5010336;28;20042;-75
2022/12/08 10:22:34;;;;;;;23.08;8.48;;;;;;;0.32;79.37;93102.91;4998311;28;20054;-75
2022/12/08 10:25:24;;;;;;;21.77;8.70;;;;;;;0.25;79.94;93096.66;4995015;28;20042;-74
2022/12/08 10:27:53;;;;;;;13.43;5.53;;;;;;;-0.19;79.65;93094.63;5004286;28;20507;-75
2022/12/08 10:30:21;;;;;;;19.00;6.80;;;;;;;-0.53;83.38;93089.97;5010662;28;20714;-75
2022/12/08 10:32:50;;;;;;;13.48;5.70;;;;;;;-0.17;80.95;93095.81;5011255;28;20049;-75
2022/12/08 10:35:19;;;;;;;15.93;6.35;;;;;;;-0.37;82.55;93089.03;4997269;28;20446;-75
2022/12/08 10:38:00;;;;;;;12.38;5.85;;;;;;;-0.35;83.46;93084.03;5011175;28;20096;-74
2022/12/08 10:40:33;;;;;;;18.98;6.85;;;;;;;-0.50;84.18;93080.41;5010405;28;20631;-73
2022/12/08 10:43:05;;;;;;;24.13;6.40;;;;;;;-0.35;84.60;93068.63;5009702;28;20396;-75
2022/12/08 10:45:40;;;;;;;18.05;6.50;;;;;;;0.41;81.97;93072.91;5011326;28;20060;-75
2022/12/08 10:48:30;;;;;;;31.10;11.98;;;;;;;0.90;79.63;93073.69;5011173;28;20067;-75
2022/12/08 10:50:58;;;;;;;18.80;7.83;;;;;;;0.57;79.76;93062.63;5010362;28;20054;-73
2022/12/08 10:53:25;;;;;;;19.02;5.72;;;;;;;-0.30;81.39;93064.84;5011062;28;20042;-75
2022/12/08 10:56:06;;;;;;;20.33;6.20;;;;;;;0.07;82.45;93058.69;5004133;28;20053;-74
2022/12/08 10:58:45;;;;;;;13.57;6.55;;;;;;;0.36;80.59;93055.16;5002594;28;21104;-76
2022/12/08 11:01:25;;;;;;;11.95;5.93;;;;;;;0.89;79.22;93051.31;4988889;28;20046;-75
2022/12/08 11:03:59;;;;;;;16.13;5.60;;;;;;;0.29;80.09;93044.28;4995025;28;20048;-75
2022/12/08 11:06:31;;;;;;;19.67;6.10;;;;;;;0.25;81.14;93045.38;4991316;28;20733;-74
2022/12/08 11:09:01;;;;;;;20.70;6.72;;;;;;;-0.03;81.35;93047.41;4996225;28;20061;-75
2022/12/08 11:11:44;;;;;;;14.90;6.70;;;;;;;-0.65;85.70;93039.00;5011004;28;20104;-75
2022/12/08 11:14:44;;;;;;;17.42;7.03;;;;;;;-0.75;85.31;93036.97;5010243;28;20072;-74
2022/12/08 11:17:15;;;;;;;15.65;6.82;;;;;;;-0.91;86.84;93035.22;4999027;28;20100;-76
2022/12/08 11:19:54;;;;;;;16.52;7.10;;;;;;;-0.44;85.23;93028.50;4994269;28;20457;-73
2022/12/08 11:22:24;;;;;;;14.82;7.47;;;;;;;-0.75;87.51;93028.88;5009456;28;20878;-75
2022/12/08 11:25:06;;;;;;;15.88;6.30;;;;;;;-0.61;86.11;93020.97;5007238;28;20045;-74
2022/12/08 11:27:35;;;;;;;13.75;5.60;;;;;;;-0.71;86.60;93030.47;5009976;28;20638;-75
2022/12/08 11:30:17;;;;;;;16.67;5.40;;;;;;;-0.30;85.83;93014.41;5009490;28;20041;-75
2022/12/08 11:32:51;;;;;;;12.50;6.00;;;;;;;-0.44;85.24;93017.72;5009402;28;20046;-74
2022/12/08 11:35:29;;;;;;;11.10;5.35;;;;;;;-0.86;86.63;93018.75;4982106;28;20126;-74
2022/12/08 11:38:09;;;;;;;16.27;5.50;;;;;;;-0.61;84.94;93020.97;5012294;28;20046;-75
2022/12/08 11:40:52;;;;;;;12.23;5.05;;;;;;;-0.56;86.20;93017.16;5010344;28;20097;-75
2022/12/08 11:43:34;;;;;;;10.40;5.35;;;;;;;-1.08;87.10;93006.91;5010135;28;20046;-75
2022/12/08 11:46:13;;;;;;;15.02;6.05;;;;;;;-1.22;88.43;93010.19;5009870;28;20060;-75